Terminal Aerodrome Forecast
Issued by NWS

Home | Current Version | Previous Version | Graphics & Text | Print | Product List | Glossary On
Versions: 1 2 3 4 5 6 7 8 9 10 11 12 13 14 15 16 17
906
FTUS43 KGRB 241136
TAFCWA
TAF
KCWA 241136Z 2412/2512 04013G21KT 2SM -SNPL VCTS OVC010CB
      TEMPO 2412/2415 3/4SM -SN OVC007
     FM241500 04017G25KT 1 1/2SM -FZDZSN OVC010
     FM241800 01017G26KT 2SM -SN OVC010
     FM250300 36012G22KT 3SM -SN OVC015
     FM250600 35012G22KT 6SM -SN OVC020=

USA.gov is the U.S. government's official web portal to all federal, state and local government web resources and services.